sensor_id;sensor_type;location;lat;lon;timestamp;P1;durP1;ratioP1;P2;durP2;ratioP2
71303;SDS011;59091;47.446;19.148;2024-03-07T00:01:35;24.02;;;14.27;;
71303;SDS011;59091;47.446;19.148;2024-03-07T00:04:00;22.85;;;13.85;;
71303;SDS011;59091;47.446;19.148;2024-03-07T00:06:26;20.15;;;12.80;;
71303;SDS011;59091;47.446;19.148;2024-03-07T00:08:51;23.48;;;13.23;;
71303;SDS011;59091;47.446;19.148;2024-03-07T00:11:16;23.70;;;13.43;;
71303;SDS011;59091;47.446;19.148;2024-03-07T00:13:42;22.38;;;13.52;;
71303;SDS011;59091;47.446;19.148;2024-03-07T00:16:08;23.40;;;13.48;;
71303;SDS011;59091;47.446;19.148;2024-03-07T00:18:35;22.30;;;12.85;;
71303;SDS011;59091;47.446;19.148;2024-03-07T00:21:01;24.13;;;13.05;;
71303;SDS011;59091;47.446;19.148;2024-03-07T00:23:28;21.88;;;12.95;;
71303;SDS011;59091;47.446;19.148;2024-03-07T00:25:53;24.95;;;12.85;;
71303;SDS011;59091;47.446;19.148;2024-03-07T00:28:19;20.15;;;11.82;;
71303;SDS011;59091;47.446;19.148;2024-03-07T00:30:44;17.35;;;11.57;;
71303;SDS011;59091;47.446;19.148;2024-03-07T00:33:11;20.08;;;12.25;;
71303;SDS011;59091;47.446;19.148;2024-03-07T00:35:36;18.40;;;11.73;;
71303;SDS011;59091;47.446;19.148;2024-03-07T00:38:02;20.15;;;11.40;;
71303;SDS011;59091;47.446;19.148;2024-03-07T00:40:28;15.10;;;10.35;;
71303;SDS011;59091;47.446;19.148;2024-03-07T00:42:54;21.27;;;11.40;;
71303;SDS011;59091;47.446;19.148;2024-03-07T00:45:19;19.58;;;11.15;;
71303;SDS011;59091;47.446;19.148;2024-03-07T00:47:45;17.13;;;10.80;;
71303;SDS011;59091;47.446;19.148;2024-03-07T00:50:10;15.80;;;9.88;;
71303;SDS011;59091;47.446;19.148;2024-03-07T00:52:36;15.48;;;9.80;;
71303;SDS011;59091;47.446;19.148;2024-03-07T00:55:03;15.30;;;9.77;;
71303;SDS011;59091;47.446;19.148;2024-03-07T00:57:29;18.90;;;10.32;;
71303;SDS011;59091;47.446;19.148;2024-03-07T00:59:55;17.92;;;10.50;;
71303;SDS011;59091;47.446;19.148;2024-03-07T01:02:21;16.50;;;9.90;;
71303;SDS011;59091;47.446;19.148;2024-03-07T01:04:47;16.52;;;10.05;;
71303;SDS011;59091;47.446;19.148;2024-03-07T01:07:13;16.85;;;10.13;;
71303;SDS011;59091;47.446;19.148;2024-03-07T01:09:38;14.73;;;10.35;;
71303;SDS011;59091;47.446;19.148;2024-03-07T01:12:04;17.23;;;10.38;;
71303;SDS011;59091;47.446;19.148;2024-03-07T01:14:30;16.67;;;9.75;;
71303;SDS011;59091;47.446;19.148;2024-03-07T01:16:56;18.77;;;10.98;;
71303;SDS011;59091;47.446;19.148;2024-03-07T01:19:21;18.27;;;10.70;;
71303;SDS011;59091;47.446;19.148;2024-03-07T01:21:47;17.17;;;10.85;;
71303;SDS011;59091;47.446;19.148;2024-03-07T01:24:13;16.10;;;10.02;;
71303;SDS011;59091;47.446;19.148;2024-03-07T01:26:43;17.10;;;10.48;;
71303;SDS011;59091;47.446;19.148;2024-03-07T01:29:08;18.20;;;10.25;;
71303;SDS011;59091;47.446;19.148;2024-03-07T01:31:34;14.73;;;9.57;;
71303;SDS011;59091;47.446;19.148;2024-03-07T01:33:59;16.38;;;10.55;;
71303;SDS011;59091;47.446;19.148;2024-03-07T01:36:24;13.80;;;9.60;;
71303;SDS011;59091;47.446;19.148;2024-03-07T01:38:50;15.85;;;9.63;;
71303;SDS011;59091;47.446;19.148;2024-03-07T01:41:16;17.23;;;10.05;;
71303;SDS011;59091;47.446;19.148;2024-03-07T01:43:42;16.15;;;10.23;;
71303;SDS011;59091;47.446;19.148;2024-03-07T01:46:08;20.17;;;10.13;;
71303;SDS011;59091;47.446;19.148;2024-03-07T01:48:35;15.43;;;9.82;;
71303;SDS011;59091;47.446;19.148;2024-03-07T01:51:01;15.25;;;9.82;;
71303;SDS011;59091;47.446;19.148;2024-03-07T01:53:30;14.60;;;9.20;;
71303;SDS011;59091;47.446;19.148;2024-03-07T01:55:57;13.48;;;9.15;;
71303;SDS011;59091;47.446;19.148;2024-03-07T01:58:24;15.15;;;9.50;;
71303;SDS011;59091;47.446;19.148;2024-03-07T02:00:49;12.40;;;8.82;;
71303;SDS011;59091;47.446;19.148;2024-03-07T02:03:15;15.13;;;9.05;;
71303;SDS011;59091;47.446;19.148;2024-03-07T02:05:41;13.93;;;8.88;;
71303;SDS011;59091;47.446;19.148;2024-03-07T02:08:07;12.55;;;8.30;;
71303;SDS011;59091;47.446;19.148;2024-03-07T02:10:32;15.68;;;8.60;;
71303;SDS011;59091;47.446;19.148;2024-03-07T02:12:58;14.07;;;8.95;;
71303;SDS011;59091;47.446;19.148;2024-03-07T02:15:23;15.10;;;9.07;;
71303;SDS011;59091;47.446;19.148;2024-03-07T02:17:49;13.52;;;9.23;;
71303;SDS011;59091;47.446;19.148;2024-03-07T02:20:14;14.02;;;8.80;;
71303;SDS011;59091;47.446;19.148;2024-03-07T02:22:41;14.40;;;7.93;;
71303;SDS011;59091;47.446;19.148;2024-03-07T02:25:06;12.10;;;8.13;;
71303;SDS011;59091;47.446;19.148;2024-03-07T02:27:35;12.25;;;8.23;;
71303;SDS011;59091;47.446;19.148;2024-03-07T02:30:01;13.00;;;7.82;;
71303;SDS011;59091;47.446;19.148;2024-03-07T02:32:29;11.90;;;7.90;;
71303;SDS011;59091;47.446;19.148;2024-03-07T02:34:54;13.13;;;7.65;;
71303;SDS011;59091;47.446;19.148;2024-03-07T02:37:20;13.05;;;8.40;;
71303;SDS011;59091;47.446;19.148;2024-03-07T02:39:45;11.88;;;7.72;;
71303;SDS011;59091;47.446;19.148;2024-03-07T02:42:11;11.70;;;7.93;;
71303;SDS011;59091;47.446;19.148;2024-03-07T02:44:36;11.55;;;8.18;;
71303;SDS011;59091;47.446;19.148;2024-03-07T02:47:03;10.95;;;7.43;;
71303;SDS011;59091;47.446;19.148;2024-03-07T02:49:29;11.93;;;7.57;;
71303;SDS011;59091;47.446;19.148;2024-03-07T02:51:55;10.55;;;7.70;;
71303;SDS011;59091;47.446;19.148;2024-03-07T02:54:20;11.20;;;7.30;;
71303;SDS011;59091;47.446;19.148;2024-03-07T02:56:46;11.93;;;7.32;;
71303;SDS011;59091;47.446;19.148;2024-03-07T02:59:11;10.93;;;7.18;;
71303;SDS011;59091;47.446;19.148;2024-03-07T03:01:37;9.55;;;6.93;;
71303;SDS011;59091;47.446;19.148;2024-03-07T03:04:02;11.45;;;7.53;;
71303;SDS011;59091;47.446;19.148;2024-03-07T03:06:28;12.73;;;8.18;;
71303;SDS011;59091;47.446;19.148;2024-03-07T03:08:53;11.20;;;7.40;;
71303;SDS011;59091;47.446;19.148;2024-03-07T03:11:19;11.45;;;7.70;;
71303;SDS011;59091;47.446;19.148;2024-03-07T03:13:45;12.98;;;7.90;;
71303;SDS011;59091;47.446;19.148;2024-03-07T03:16:12;13.05;;;8.05;;
71303;SDS011;59091;47.446;19.148;2024-03-07T03:18:38;12.85;;;8.15;;
71303;SDS011;59091;47.446;19.148;2024-03-07T03:21:04;12.05;;;7.53;;
71303;SDS011;59091;47.446;19.148;2024-03-07T03:23:29;11.73;;;7.60;;
71303;SDS011;59091;47.446;19.148;2024-03-07T03:25:55;12.38;;;7.25;;
71303;SDS011;59091;47.446;19.148;2024-03-07T03:28:21;10.35;;;7.07;;
71303;SDS011;59091;47.446;19.148;2024-03-07T03:30:47;9.93;;;7.05;;
71303;SDS011;59091;47.446;19.148;2024-03-07T03:33:13;10.55;;;6.95;;
71303;SDS011;59091;47.446;19.148;2024-03-07T03:35:39;10.48;;;7.13;;
71303;SDS011;59091;47.446;19.148;2024-03-07T03:38:05;11.18;;;6.75;;
71303;SDS011;59091;47.446;19.148;2024-03-07T03:40:31;10.52;;;7.10;;
71303;SDS011;59091;47.446;19.148;2024-03-07T03:42:57;11.25;;;6.88;;
71303;SDS011;59091;47.446;19.148;2024-03-07T03:45:22;10.48;;;7.05;;
71303;SDS011;59091;47.446;19.148;2024-03-07T03:47:50;9.82;;;6.93;;
71303;SDS011;59091;47.446;19.148;2024-03-07T03:50:16;9.43;;;6.93;;
71303;SDS011;59091;47.446;19.148;2024-03-07T03:52:42;10.82;;;7.07;;
71303;SDS011;59091;47.446;19.148;2024-03-07T03:55:08;11.10;;;6.75;;
71303;SDS011;59091;47.446;19.148;2024-03-07T03:57:39;10.35;;;6.95;;
71303;SDS011;59091;47.446;19.148;2024-03-07T04:00:06;10.20;;;7.13;;
71303;SDS011;59091;47.446;19.148;2024-03-07T04:02:38;9.73;;;6.53;;
71303;SDS011;59091;47.446;19.148;2024-03-07T04:05:08;8.88;;;6.43;;
71303;SDS011;59091;47.446;19.148;2024-03-07T04:07:35;8.70;;;6.25;;
71303;SDS011;59091;47.446;19.148;2024-03-07T04:10:00;10.32;;;6.72;;
71303;SDS011;59091;47.446;19.148;2024-03-07T04:12:31;10.23;;;6.32;;
71303;SDS011;59091;47.446;19.148;2024-03-07T04:14:57;10.38;;;6.10;;
71303;SDS011;59091;47.446;19.148;2024-03-07T04:17:23;9.25;;;6.10;;
71303;SDS011;59091;47.446;19.148;2024-03-07T04:19:48;9.90;;;6.35;;
71303;SDS011;59091;47.446;19.148;2024-03-07T04:22:13;11.98;;;6.50;;
71303;SDS011;59091;47.446;19.148;2024-03-07T04:24:39;9.63;;;6.38;;
71303;SDS011;59091;47.446;19.148;2024-03-07T04:27:05;8.10;;;6.05;;
71303;SDS011;59091;47.446;19.148;2024-03-07T04:29:31;9.27;;;6.47;;
71303;SDS011;59091;47.446;19.148;2024-03-07T04:31:58;9.20;;;6.22;;
71303;SDS011;59091;47.446;19.148;2024-03-07T04:34:24;10.07;;;6.32;;
71303;SDS011;59091;47.446;19.148;2024-03-07T04:36:49;8.30;;;5.88;;
71303;SDS011;59091;47.446;19.148;2024-03-07T04:39:15;7.05;;;5.53;;
71303;SDS011;59091;47.446;19.148;2024-03-07T04:42:04;8.02;;;5.55;;
71303;SDS011;59091;47.446;19.148;2024-03-07T04:44:31;7.78;;;5.35;;
71303;SDS011;59091;47.446;19.148;2024-03-07T04:46:58;8.85;;;5.72;;
71303;SDS011;59091;47.446;19.148;2024-03-07T04:49:25;8.02;;;6.10;;
71303;SDS011;59091;47.446;19.148;2024-03-07T04:51:52;9.48;;;5.88;;
71303;SDS011;59091;47.446;19.148;2024-03-07T04:54:18;10.23;;;6.38;;
71303;SDS011;59091;47.446;19.148;2024-03-07T04:56:45;7.53;;;5.32;;
71303;SDS011;59091;47.446;19.148;2024-03-07T04:59:10;10.02;;;6.15;;
71303;SDS011;59091;47.446;19.148;2024-03-07T05:01:37;7.13;;;5.53;;
71303;SDS011;59091;47.446;19.148;2024-03-07T05:04:03;8.38;;;5.53;;
71303;SDS011;59091;47.446;19.148;2024-03-07T05:06:29;8.63;;;5.72;;
71303;SDS011;59091;47.446;19.148;2024-03-07T05:08:54;8.20;;;6.10;;
71303;SDS011;59091;47.446;19.148;2024-03-07T05:11:19;11.52;;;5.82;;
71303;SDS011;59091;47.446;19.148;2024-03-07T05:13:45;8.00;;;5.78;;
71303;SDS011;59091;47.446;19.148;2024-03-07T05:16:10;8.75;;;5.65;;
71303;SDS011;59091;47.446;19.148;2024-03-07T05:18:36;7.90;;;5.53;;
71303;SDS011;59091;47.446;19.148;2024-03-07T05:21:01;7.15;;;5.20;;
71303;SDS011;59091;47.446;19.148;2024-03-07T05:23:47;7.55;;;5.18;;
71303;SDS011;59091;47.446;19.148;2024-03-07T05:26:14;7.55;;;5.25;;
71303;SDS011;59091;47.446;19.148;2024-03-07T05:28:39;8.75;;;5.40;;
71303;SDS011;59091;47.446;19.148;2024-03-07T05:31:05;6.78;;;5.22;;
71303;SDS011;59091;47.446;19.148;2024-03-07T05:33:30;6.30;;;5.45;;
71303;SDS011;59091;47.446;19.148;2024-03-07T05:35:56;8.95;;;6.00;;
71303;SDS011;59091;47.446;19.148;2024-03-07T05:38:38;7.38;;;5.38;;
71303;SDS011;59091;47.446;19.148;2024-03-07T05:41:04;7.68;;;5.47;;
71303;SDS011;59091;47.446;19.148;2024-03-07T05:43:29;9.52;;;5.43;;
71303;SDS011;59091;47.446;19.148;2024-03-07T05:45:55;6.90;;;5.15;;
71303;SDS011;59091;47.446;19.148;2024-03-07T05:48:21;9.23;;;5.82;;
71303;SDS011;59091;47.446;19.148;2024-03-07T05:50:47;9.70;;;5.35;;
71303;SDS011;59091;47.446;19.148;2024-03-07T05:53:12;9.45;;;5.43;;
71303;SDS011;59091;47.446;19.148;2024-03-07T05:55:37;7.10;;;5.03;;
71303;SDS011;59091;47.446;19.148;2024-03-07T05:58:03;6.50;;;5.10;;
71303;SDS011;59091;47.446;19.148;2024-03-07T06:00:28;8.52;;;5.10;;
71303;SDS011;59091;47.446;19.148;2024-03-07T06:02:54;7.38;;;5.45;;
71303;SDS011;59091;47.446;19.148;2024-03-07T06:05:19;8.02;;;5.32;;
71303;SDS011;59091;47.446;19.148;2024-03-07T06:07:44;7.57;;;5.63;;
71303;SDS011;59091;47.446;19.148;2024-03-07T06:10:14;6.88;;;4.82;;
71303;SDS011;59091;47.446;19.148;2024-03-07T06:12:41;7.25;;;5.20;;
71303;SDS011;59091;47.446;19.148;2024-03-07T06:15:10;6.22;;;4.90;;
71303;SDS011;59091;47.446;19.148;2024-03-07T06:17:36;6.97;;;5.07;;
71303;SDS011;59091;47.446;19.148;2024-03-07T06:20:02;6.55;;;5.03;;
71303;SDS011;59091;47.446;19.148;2024-03-07T06:22:27;7.85;;;5.25;;
71303;SDS011;59091;47.446;19.148;2024-03-07T06:24:53;6.03;;;5.13;;
71303;SDS011;59091;47.446;19.148;2024-03-07T06:27:18;8.02;;;5.05;;
71303;SDS011;59091;47.446;19.148;2024-03-07T06:29:52;7.13;;;5.30;;
71303;SDS011;59091;47.446;19.148;2024-03-07T06:32:17;6.75;;;5.18;;
71303;SDS011;59091;47.446;19.148;2024-03-07T06:34:43;7.40;;;5.65;;
71303;SDS011;59091;47.446;19.148;2024-03-07T06:37:08;7.93;;;5.65;;
71303;SDS011;59091;47.446;19.148;2024-03-07T06:39:34;7.78;;;5.60;;
71303;SDS011;59091;47.446;19.148;2024-03-07T06:42:00;6.72;;;5.18;;
71303;SDS011;59091;47.446;19.148;2024-03-07T06:44:25;8.93;;;5.47;;
71303;SDS011;59091;47.446;19.148;2024-03-07T06:46:51;8.70;;;5.47;;
71303;SDS011;59091;47.446;19.148;2024-03-07T06:49:17;6.82;;;5.07;;
71303;SDS011;59091;47.446;19.148;2024-03-07T06:51:43;5.82;;;4.85;;
71303;SDS011;59091;47.446;19.148;2024-03-07T06:54:09;15.05;;;5.80;;
71303;SDS011;59091;47.446;19.148;2024-03-07T06:56:35;7.53;;;5.50;;
71303;SDS011;59091;47.446;19.148;2024-03-07T06:59:01;11.68;;;5.63;;
71303;SDS011;59091;47.446;19.148;2024-03-07T07:01:30;6.15;;;5.15;;
71303;SDS011;59091;47.446;19.148;2024-03-07T07:03:56;11.50;;;5.32;;
71303;SDS011;59091;47.446;19.148;2024-03-07T07:06:23;7.65;;;5.43;;
71303;SDS011;59091;47.446;19.148;2024-03-07T07:08:49;6.72;;;4.82;;
71303;SDS011;59091;47.446;19.148;2024-03-07T07:11:14;6.18;;;5.13;;
71303;SDS011;59091;47.446;19.148;2024-03-07T07:13:40;7.38;;;5.13;;
71303;SDS011;59091;47.446;19.148;2024-03-07T07:16:07;8.68;;;5.32;;
71303;SDS011;59091;47.446;19.148;2024-03-07T07:18:32;9.02;;;5.97;;
71303;SDS011;59091;47.446;19.148;2024-03-07T07:20:58;8.07;;;5.00;;
71303;SDS011;59091;47.446;19.148;2024-03-07T07:23:24;11.90;;;5.68;;
71303;SDS011;59091;47.446;19.148;2024-03-07T07:25:49;7.63;;;5.63;;
71303;SDS011;59091;47.446;19.148;2024-03-07T07:28:15;10.10;;;4.97;;
71303;SDS011;59091;47.446;19.148;2024-03-07T07:30:40;8.05;;;5.07;;
71303;SDS011;59091;47.446;19.148;2024-03-07T07:33:06;6.63;;;5.00;;
71303;SDS011;59091;47.446;19.148;2024-03-07T07:35:31;8.70;;;5.95;;
71303;SDS011;59091;47.446;19.148;2024-03-07T07:37:57;8.55;;;5.00;;
71303;SDS011;59091;47.446;19.148;2024-03-07T07:40:24;6.55;;;5.13;;
71303;SDS011;59091;47.446;19.148;2024-03-07T07:42:52;8.55;;;5.10;;
71303;SDS011;59091;47.446;19.148;2024-03-07T07:45:18;5.47;;;4.50;;
71303;SDS011;59091;47.446;19.148;2024-03-07T07:47:45;5.32;;;4.68;;
71303;SDS011;59091;47.446;19.148;2024-03-07T07:50:14;4.93;;;4.40;;
71303;SDS011;59091;47.446;19.148;2024-03-07T07:52:44;7.30;;;5.10;;
71303;SDS011;59091;47.446;19.148;2024-03-07T07:55:11;6.15;;;4.68;;
71303;SDS011;59091;47.446;19.148;2024-03-07T07:57:45;7.75;;;5.20;;
71303;SDS011;59091;47.446;19.148;2024-03-07T08:00:17;6.72;;;5.20;;
71303;SDS011;59091;47.446;19.148;2024-03-07T08:02:57;6.80;;;4.95;;
71303;SDS011;59091;47.446;19.148;2024-03-07T08:05:31;8.35;;;5.60;;
71303;SDS011;59091;47.446;19.148;2024-03-07T08:08:07;7.03;;;5.25;;
71303;SDS011;59091;47.446;19.148;2024-03-07T08:10:36;6.70;;;4.75;;
71303;SDS011;59091;47.446;19.148;2024-03-07T08:13:02;6.30;;;5.13;;
71303;SDS011;59091;47.446;19.148;2024-03-07T08:15:30;4.75;;;4.28;;
71303;SDS011;59091;47.446;19.148;2024-03-07T08:17:56;4.60;;;4.20;;
71303;SDS011;59091;47.446;19.148;2024-03-07T08:20:24;6.07;;;4.55;;
71303;SDS011;59091;47.446;19.148;2024-03-07T08:22:51;5.72;;;4.32;;
71303;SDS011;59091;47.446;19.148;2024-03-07T08:25:18;6.78;;;4.97;;
71303;SDS011;59091;47.446;19.148;2024-03-07T08:27:48;5.35;;;4.50;;
71303;SDS011;59091;47.446;19.148;2024-03-07T08:30:15;7.55;;;4.90;;
71303;SDS011;59091;47.446;19.148;2024-03-07T08:32:41;8.18;;;4.50;;
71303;SDS011;59091;47.446;19.148;2024-03-07T08:35:09;7.65;;;4.43;;
71303;SDS011;59091;47.446;19.148;2024-03-07T08:37:35;9.30;;;5.20;;
71303;SDS011;59091;47.446;19.148;2024-03-07T08:40:01;8.35;;;5.55;;
71303;SDS011;59091;47.446;19.148;2024-03-07T08:42:32;8.70;;;5.43;;
71303;SDS011;59091;47.446;19.148;2024-03-07T08:44:59;9.13;;;5.32;;
71303;SDS011;59091;47.446;19.148;2024-03-07T08:47:26;8.48;;;5.38;;
71303;SDS011;59091;47.446;19.148;2024-03-07T08:49:53;9.45;;;5.22;;
71303;SDS011;59091;47.446;19.148;2024-03-07T08:52:19;5.45;;;4.68;;
71303;SDS011;59091;47.446;19.148;2024-03-07T08:54:44;5.65;;;5.10;;
71303;SDS011;59091;47.446;19.148;2024-03-07T08:57:10;8.52;;;5.50;;
71303;SDS011;59091;47.446;19.148;2024-03-07T08:59:35;7.00;;;5.80;;
71303;SDS011;59091;47.446;19.148;2024-03-07T09:02:01;7.95;;;5.70;;
71303;SDS011;59091;47.446;19.148;2024-03-07T09:04:27;6.90;;;5.57;;
71303;SDS011;59091;47.446;19.148;2024-03-07T09:06:54;7.85;;;6.07;;
71303;SDS011;59091;47.446;19.148;2024-03-07T09:09:19;6.25;;;5.32;;
71303;SDS011;59091;47.446;19.148;2024-03-07T09:11:45;7.03;;;5.53;;
71303;SDS011;59091;47.446;19.148;2024-03-07T09:14:10;6.00;;;5.38;;
71303;SDS011;59091;47.446;19.148;2024-03-07T09:16:36;7.55;;;5.68;;
71303;SDS011;59091;47.446;19.148;2024-03-07T09:19:01;9.23;;;5.45;;
71303;SDS011;59091;47.446;19.148;2024-03-07T09:21:28;6.80;;;5.22;;
71303;SDS011;59091;47.446;19.148;2024-03-07T09:23:53;7.78;;;5.43;;
71303;SDS011;59091;47.446;19.148;2024-03-07T09:26:19;6.05;;;5.38;;
71303;SDS011;59091;47.446;19.148;2024-03-07T09:28:45;8.95;;;5.20;;
71303;SDS011;59091;47.446;19.148;2024-03-07T09:31:11;6.07;;;5.22;;
71303;SDS011;59091;47.446;19.148;2024-03-07T09:33:39;7.20;;;5.82;;
71303;SDS011;59091;47.446;19.148;2024-03-07T09:36:06;8.27;;;6.68;;
71303;SDS011;59091;47.446;19.148;2024-03-07T09:38:33;7.72;;;6.30;;
71303;SDS011;59091;47.446;19.148;2024-03-07T09:40:59;6.68;;;4.90;;
71303;SDS011;59091;47.446;19.148;2024-03-07T09:43:25;5.75;;;4.95;;
71303;SDS011;59091;47.446;19.148;2024-03-07T09:45:53;9.18;;;4.95;;
71303;SDS011;59091;47.446;19.148;2024-03-07T09:48:20;5.72;;;4.97;;
71303;SDS011;59091;47.446;19.148;2024-03-07T09:50:47;7.88;;;4.80;;
71303;SDS011;59091;47.446;19.148;2024-03-07T09:53:16;5.55;;;4.90;;
71303;SDS011;59091;47.446;19.148;2024-03-07T09:55:43;5.22;;;4.72;;
71303;SDS011;59091;47.446;19.148;2024-03-07T09:58:09;7.38;;;5.53;;
71303;SDS011;59091;47.446;19.148;2024-03-07T10:00:38;5.60;;;5.00;;
71303;SDS011;59091;47.446;19.148;2024-03-07T10:03:06;6.20;;;5.22;;
71303;SDS011;59091;47.446;19.148;2024-03-07T10:05:33;6.68;;;5.07;;
71303;SDS011;59091;47.446;19.148;2024-03-07T10:07:59;6.45;;;4.70;;
71303;SDS011;59091;47.446;19.148;2024-03-07T10:10:25;6.10;;;5.03;;
71303;SDS011;59091;47.446;19.148;2024-03-07T10:12:51;5.30;;;4.43;;
71303;SDS011;59091;47.446;19.148;2024-03-07T10:15:26;6.40;;;5.10;;
71303;SDS011;59091;47.446;19.148;2024-03-07T10:17:52;7.53;;;5.00;;
71303;SDS011;59091;47.446;19.148;2024-03-07T10:20:19;10.07;;;5.43;;
71303;SDS011;59091;47.446;19.148;2024-03-07T10:22:48;6.35;;;5.50;;
71303;SDS011;59091;47.446;19.148;2024-03-07T10:25:16;6.72;;;5.07;;
71303;SDS011;59091;47.446;19.148;2024-03-07T10:27:45;8.15;;;5.28;;
71303;SDS011;59091;47.446;19.148;2024-03-07T10:30:13;6.85;;;5.35;;
71303;SDS011;59091;47.446;19.148;2024-03-07T10:32:45;5.78;;;4.88;;
71303;SDS011;59091;47.446;19.148;2024-03-07T10:35:20;7.15;;;5.25;;
71303;SDS011;59091;47.446;19.148;2024-03-07T10:37:47;8.23;;;5.70;;
71303;SDS011;59091;47.446;19.148;2024-03-07T10:40:13;9.85;;;5.65;;
71303;SDS011;59091;47.446;19.148;2024-03-07T10:42:46;7.38;;;5.60;;
71303;SDS011;59091;47.446;19.148;2024-03-07T10:45:17;6.63;;;5.15;;
71303;SDS011;59091;47.446;19.148;2024-03-07T10:47:52;8.60;;;5.20;;
71303;SDS011;59091;47.446;19.148;2024-03-07T11:01:13;8.32;;;5.80;;
71303;SDS011;59091;47.446;19.148;2024-03-07T11:03:39;9.38;;;5.65;;
71303;SDS011;59091;47.446;19.148;2024-03-07T11:06:07;8.48;;;5.80;;
71303;SDS011;59091;47.446;19.148;2024-03-07T11:08:36;8.07;;;5.85;;
71303;SDS011;59091;47.446;19.148;2024-03-07T11:11:03;6.53;;;5.82;;
71303;SDS011;59091;47.446;19.148;2024-03-07T11:13:33;7.00;;;5.55;;
71303;SDS011;59091;47.446;19.148;2024-03-07T11:15:59;7.82;;;5.80;;
71303;SDS011;59091;47.446;19.148;2024-03-07T11:18:26;14.02;;;6.68;;
71303;SDS011;59091;47.446;19.148;2024-03-07T11:20:52;7.05;;;5.75;;
71303;SDS011;59091;47.446;19.148;2024-03-07T11:23:28;9.20;;;5.20;;
71303;SDS011;59091;47.446;19.148;2024-03-07T11:26:09;7.05;;;6.28;;
71303;SDS011;59091;47.446;19.148;2024-03-07T11:28:39;6.85;;;6.00;;
71303;SDS011;59091;47.446;19.148;2024-03-07T11:31:12;7.43;;;5.97;;
71303;SDS011;59091;47.446;19.148;2024-03-07T11:33:39;7.93;;;6.20;;
71303;SDS011;59091;47.446;19.148;2024-03-07T11:36:06;7.05;;;5.60;;
71303;SDS011;59091;47.446;19.148;2024-03-07T11:38:38;26.00;;;6.47;;
71303;SDS011;59091;47.446;19.148;2024-03-07T11:41:09;7.78;;;6.30;;
71303;SDS011;59091;47.446;19.148;2024-03-07T11:43:38;8.15;;;6.35;;
71303;SDS011;59091;47.446;19.148;2024-03-07T11:46:05;8.82;;;6.57;;
71303;SDS011;59091;47.446;19.148;2024-03-07T11:48:38;9.15;;;6.75;;
71303;SDS011;59091;47.446;19.148;2024-03-07T11:51:06;8.90;;;6.43;;
71303;SDS011;59091;47.446;19.148;2024-03-07T11:53:35;8.02;;;6.28;;
71303;SDS011;59091;47.446;19.148;2024-03-07T11:56:03;8.35;;;6.65;;
71303;SDS011;59091;47.446;19.148;2024-03-07T11:58:37;7.90;;;6.22;;
71303;SDS011;59091;47.446;19.148;2024-03-07T12:01:06;8.77;;;6.78;;
71303;SDS011;59091;47.446;19.148;2024-03-07T12:03:35;7.95;;;6.15;;
71303;SDS011;59091;47.446;19.148;2024-03-07T12:06:02;14.30;;;5.75;;
71303;SDS011;59091;47.446;19.148;2024-03-07T12:08:28;13.77;;;6.40;;
71303;SDS011;59091;47.446;19.148;2024-03-07T12:10:54;17.10;;;6.07;;
71303;SDS011;59091;47.446;19.148;2024-03-07T12:13:21;7.40;;;6.28;;
71303;SDS011;59091;47.446;19.148;2024-03-07T12:15:47;9.90;;;6.57;;
71303;SDS011;59091;47.446;19.148;2024-03-07T12:18:16;12.45;;;7.05;;
71303;SDS011;59091;47.446;19.148;2024-03-07T12:20:42;8.30;;;6.95;;
71303;SDS011;59091;47.446;19.148;2024-03-07T12:23:15;8.15;;;6.63;;
71303;SDS011;59091;47.446;19.148;2024-03-07T12:25:44;8.93;;;7.20;;
71303;SDS011;59091;47.446;19.148;2024-03-07T12:28:13;8.98;;;7.00;;
71303;SDS011;59091;47.446;19.148;2024-03-07T12:33:11;10.95;;;7.07;;
71303;SDS011;59091;47.446;19.148;2024-03-07T12:35:39;9.77;;;6.88;;
71303;SDS011;59091;47.446;19.148;2024-03-07T12:38:07;8.95;;;6.68;;
71303;SDS011;59091;47.446;19.148;2024-03-07T12:40:35;8.80;;;6.90;;
71303;SDS011;59091;47.446;19.148;2024-03-07T12:43:02;10.07;;;7.55;;
71303;SDS011;59091;47.446;19.148;2024-03-07T12:45:42;9.82;;;7.53;;
71303;SDS011;59091;47.446;19.148;2024-03-07T12:48:13;8.57;;;6.80;;
71303;SDS011;59091;47.446;19.148;2024-03-07T12:50:39;10.25;;;7.53;;
71303;SDS011;59091;47.446;19.148;2024-03-07T12:53:05;8.60;;;7.07;;
71303;SDS011;59091;47.446;19.148;2024-03-07T12:55:37;11.02;;;8.77;;
71303;SDS011;59091;47.446;19.148;2024-03-07T12:58:08;10.85;;;7.15;;
71303;SDS011;59091;47.446;19.148;2024-03-07T13:00:37;10.23;;;7.20;;
71303;SDS011;59091;47.446;19.148;2024-03-07T13:03:03;12.30;;;7.40;;
71303;SDS011;59091;47.446;19.148;2024-03-07T13:05:30;10.45;;;7.55;;
71303;SDS011;59091;47.446;19.148;2024-03-07T13:07:56;12.43;;;7.40;;
71303;SDS011;59091;47.446;19.148;2024-03-07T13:10:22;9.68;;;7.13;;
71303;SDS011;59091;47.446;19.148;2024-03-07T13:12:48;10.65;;;7.18;;
71303;SDS011;59091;47.446;19.148;2024-03-07T13:15:18;10.95;;;7.18;;
71303;SDS011;59091;47.446;19.148;2024-03-07T13:17:43;9.43;;;6.70;;
71303;SDS011;59091;47.446;19.148;2024-03-07T13:20:10;10.23;;;7.55;;
71303;SDS011;59091;47.446;19.148;2024-03-07T13:22:43;11.38;;;7.68;;
71303;SDS011;59091;47.446;19.148;2024-03-07T13:25:19;9.70;;;6.88;;
71303;SDS011;59091;47.446;19.148;2024-03-07T13:27:51;11.40;;;8.13;;
71303;SDS011;59091;47.446;19.148;2024-03-07T13:30:21;10.20;;;7.45;;
71303;SDS011;59091;47.446;19.148;2024-03-07T13:32:52;12.77;;;7.68;;
71303;SDS011;59091;47.446;19.148;2024-03-07T13:35:21;10.45;;;7.88;;
71303;SDS011;59091;47.446;19.148;2024-03-07T13:37:48;10.10;;;7.80;;
71303;SDS011;59091;47.446;19.148;2024-03-07T13:40:14;11.27;;;7.93;;
71303;SDS011;59091;47.446;19.148;2024-03-07T13:42:52;12.18;;;9.20;;
71303;SDS011;59091;47.446;19.148;2024-03-07T13:45:23;12.65;;;8.77;;
71303;SDS011;59091;47.446;19.148;2024-03-07T13:47:53;11.02;;;7.70;;
71303;SDS011;59091;47.446;19.148;2024-03-07T13:50:21;10.65;;;8.05;;
71303;SDS011;59091;47.446;19.148;2024-03-07T13:52:51;11.32;;;8.13;;
71303;SDS011;59091;47.446;19.148;2024-03-07T13:56:27;13.40;;;8.85;;
71303;SDS011;59091;47.446;19.148;2024-03-07T13:58:54;12.55;;;8.35;;
71303;SDS011;59091;47.446;19.148;2024-03-07T14:04:31;12.60;;;7.75;;
71303;SDS011;59091;47.446;19.148;2024-03-07T14:21:31;11.75;;;8.20;;
71303;SDS011;59091;47.446;19.148;2024-03-07T14:32:13;14.30;;;8.65;;
71303;SDS011;59091;47.446;19.148;2024-03-07T14:40:15;11.82;;;8.57;;
71303;SDS011;59091;47.446;19.148;2024-03-07T14:42:42;12.60;;;8.48;;
71303;SDS011;59091;47.446;19.148;2024-03-07T14:45:11;12.77;;;8.75;;
71303;SDS011;59091;47.446;19.148;2024-03-07T14:47:41;12.77;;;9.05;;
71303;SDS011;59091;47.446;19.148;2024-03-07T14:50:07;14.32;;;9.90;;
71303;SDS011;59091;47.446;19.148;2024-03-07T14:52:37;16.42;;;11.18;;
71303;SDS011;59091;47.446;19.148;2024-03-07T14:55:07;14.15;;;9.52;;
71303;SDS011;59091;47.446;19.148;2024-03-07T14:57:34;15.20;;;9.02;;
71303;SDS011;59091;47.446;19.148;2024-03-07T14:59:59;10.45;;;8.20;;
71303;SDS011;59091;47.446;19.148;2024-03-07T15:02:25;15.45;;;8.90;;
71303;SDS011;59091;47.446;19.148;2024-03-07T15:04:51;14.77;;;9.85;;
71303;SDS011;59091;47.446;19.148;2024-03-07T15:07:18;13.48;;;9.23;;
71303;SDS011;59091;47.446;19.148;2024-03-07T15:09:48;16.35;;;9.52;;
71303;SDS011;59091;47.446;19.148;2024-03-07T15:12:14;17.48;;;9.40;;
71303;SDS011;59091;47.446;19.148;2024-03-07T15:14:40;18.17;;;9.45;;